sensor_id;sensor_type;location;lat;lon;timestamp;P1;durP1;ratioP1;P2;durP2;ratioP2
49131;SDS011;35149;51.196;6.204;2024-02-28T00:02:02;30.13;;;18.15;;
49131;SDS011;35149;51.196;6.204;2024-02-28T00:04:29;30.05;;;18.40;;
49131;SDS011;35149;51.196;6.204;2024-02-28T00:06:55;30.05;;;18.83;;
49131;SDS011;35149;51.196;6.204;2024-02-28T00:09:22;29.70;;;18.15;;
49131;SDS011;35149;51.196;6.204;2024-02-28T00:11:49;27.10;;;18.38;;
49131;SDS011;35149;51.196;6.204;2024-02-28T00:14:16;30.98;;;19.08;;
49131;SDS011;35149;51.196;6.204;2024-02-28T00:16:43;31.55;;;18.40;;
49131;SDS011;35149;51.196;6.204;2024-02-28T00:19:11;30.85;;;17.55;;
49131;SDS011;35149;51.196;6.204;2024-02-28T00:21:39;33.53;;;20.05;;
49131;SDS011;35149;51.196;6.204;2024-02-28T00:24:07;34.85;;;22.50;;
49131;SDS011;35149;51.196;6.204;2024-02-28T00:26:34;35.80;;;20.80;;
49131;SDS011;35149;51.196;6.204;2024-02-28T00:29:01;38.58;;;20.98;;
49131;SDS011;35149;51.196;6.204;2024-02-28T00:31:28;42.03;;;24.17;;
49131;SDS011;35149;51.196;6.204;2024-02-28T00:33:55;45.47;;;24.08;;
49131;SDS011;35149;51.196;6.204;2024-02-28T00:36:21;50.78;;;25.50;;
49131;SDS011;35149;51.196;6.204;2024-02-28T00:38:48;47.97;;;26.63;;
49131;SDS011;35149;51.196;6.204;2024-02-28T00:41:15;56.63;;;27.95;;
49131;SDS011;35149;51.196;6.204;2024-02-28T00:43:42;59.28;;;29.27;;
49131;SDS011;35149;51.196;6.204;2024-02-28T00:46:09;63.15;;;31.85;;
49131;SDS011;35149;51.196;6.204;2024-02-28T00:48:38;65.75;;;31.42;;
49131;SDS011;35149;51.196;6.204;2024-02-28T00:51:06;68.82;;;31.70;;
49131;SDS011;35149;51.196;6.204;2024-02-28T00:53:34;74.88;;;32.33;;
49131;SDS011;35149;51.196;6.204;2024-02-28T00:56:01;70.07;;;33.17;;
49131;SDS011;35149;51.196;6.204;2024-02-28T00:58:28;67.20;;;32.20;;
49131;SDS011;35149;51.196;6.204;2024-02-28T01:00:56;66.13;;;32.03;;
49131;SDS011;35149;51.196;6.204;2024-02-28T01:03:23;74.53;;;33.83;;
49131;SDS011;35149;51.196;6.204;2024-02-28T01:05:50;63.25;;;32.40;;
49131;SDS011;35149;51.196;6.204;2024-02-28T01:08:17;69.35;;;31.30;;
49131;SDS011;35149;51.196;6.204;2024-02-28T01:10:44;94.00;;;30.65;;
49131;SDS011;35149;51.196;6.204;2024-02-28T01:13:12;77.35;;;28.58;;
49131;SDS011;35149;51.196;6.204;2024-02-28T01:15:39;74.45;;;29.38;;
49131;SDS011;35149;51.196;6.204;2024-02-28T01:18:08;124.35;;;32.47;;
49131;SDS011;35149;51.196;6.204;2024-02-28T01:20:36;86.03;;;30.73;;
49131;SDS011;35149;51.196;6.204;2024-02-28T01:23:03;72.93;;;29.23;;
49131;SDS011;35149;51.196;6.204;2024-02-28T01:25:30;74.57;;;30.60;;
49131;SDS011;35149;51.196;6.204;2024-02-28T01:27:57;89.57;;;33.30;;
49131;SDS011;35149;51.196;6.204;2024-02-28T01:30:26;71.60;;;31.00;;
49131;SDS011;35149;51.196;6.204;2024-02-28T01:32:53;67.68;;;31.05;;
49131;SDS011;35149;51.196;6.204;2024-02-28T01:35:20;59.03;;;30.40;;
49131;SDS011;35149;51.196;6.204;2024-02-28T01:37:47;80.13;;;31.77;;
49131;SDS011;35149;51.196;6.204;2024-02-28T01:40:14;71.18;;;30.80;;
49131;SDS011;35149;51.196;6.204;2024-02-28T01:42:40;72.15;;;32.67;;
49131;SDS011;35149;51.196;6.204;2024-02-28T01:45:09;58.85;;;31.85;;
49131;SDS011;35149;51.196;6.204;2024-02-28T01:47:43;116.05;;;35.88;;
49131;SDS011;35149;51.196;6.204;2024-02-28T01:50:10;98.07;;;36.55;;
49131;SDS011;35149;51.196;6.204;2024-02-28T01:52:38;73.78;;;36.03;;
49131;SDS011;35149;51.196;6.204;2024-02-28T01:55:06;96.53;;;34.58;;
49131;SDS011;35149;51.196;6.204;2024-02-28T01:57:34;93.78;;;37.55;;
49131;SDS011;35149;51.196;6.204;2024-02-28T02:00:04;89.57;;;38.47;;
49131;SDS011;35149;51.196;6.204;2024-02-28T02:02:34;71.50;;;35.85;;
49131;SDS011;35149;51.196;6.204;2024-02-28T02:05:01;67.95;;;35.72;;
49131;SDS011;35149;51.196;6.204;2024-02-28T02:07:28;68.25;;;34.72;;
49131;SDS011;35149;51.196;6.204;2024-02-28T02:09:55;67.55;;;36.90;;
49131;SDS011;35149;51.196;6.204;2024-02-28T02:12:22;70.35;;;35.42;;
49131;SDS011;35149;51.196;6.204;2024-02-28T02:14:49;68.70;;;36.88;;
49131;SDS011;35149;51.196;6.204;2024-02-28T02:17:16;148.07;;;42.38;;
49131;SDS011;35149;51.196;6.204;2024-02-28T02:19:43;72.57;;;38.90;;
49131;SDS011;35149;51.196;6.204;2024-02-28T02:22:10;71.57;;;38.15;;
49131;SDS011;35149;51.196;6.204;2024-02-28T02:24:40;72.70;;;38.22;;
49131;SDS011;35149;51.196;6.204;2024-02-28T02:27:07;69.55;;;38.67;;
49131;SDS011;35149;51.196;6.204;2024-02-28T02:29:34;80.00;;;39.35;;
49131;SDS011;35149;51.196;6.204;2024-02-28T02:32:00;67.75;;;39.50;;
49131;SDS011;35149;51.196;6.204;2024-02-28T02:34:27;70.60;;;39.90;;
49131;SDS011;35149;51.196;6.204;2024-02-28T02:36:54;74.60;;;38.83;;
49131;SDS011;35149;51.196;6.204;2024-02-28T02:39:21;79.47;;;40.50;;
49131;SDS011;35149;51.196;6.204;2024-02-28T02:41:48;94.82;;;38.70;;
49131;SDS011;35149;51.196;6.204;2024-02-28T02:44:15;113.93;;;39.90;;
49131;SDS011;35149;51.196;6.204;2024-02-28T02:46:41;98.30;;;37.80;;
49131;SDS011;35149;51.196;6.204;2024-02-28T02:49:08;102.63;;;35.72;;
49131;SDS011;35149;51.196;6.204;2024-02-28T02:51:35;61.65;;;32.22;;
49131;SDS011;35149;51.196;6.204;2024-02-28T02:54:02;147.60;;;36.55;;
49131;SDS011;35149;51.196;6.204;2024-02-28T02:56:28;138.02;;;35.75;;
49131;SDS011;35149;51.196;6.204;2024-02-28T02:58:55;77.88;;;32.33;;
49131;SDS011;35149;51.196;6.204;2024-02-28T03:01:22;109.97;;;32.88;;
49131;SDS011;35149;51.196;6.204;2024-02-28T03:03:48;103.03;;;34.72;;
49131;SDS011;35149;51.196;6.204;2024-02-28T03:06:15;106.80;;;34.38;;
49131;SDS011;35149;51.196;6.204;2024-02-28T03:08:42;117.20;;;33.13;;
49131;SDS011;35149;51.196;6.204;2024-02-28T03:11:09;65.80;;;31.38;;
49131;SDS011;35149;51.196;6.204;2024-02-28T03:13:37;108.03;;;33.75;;
49131;SDS011;35149;51.196;6.204;2024-02-28T03:16:04;131.20;;;35.90;;
49131;SDS011;35149;51.196;6.204;2024-02-28T03:18:31;104.68;;;34.10;;
49131;SDS011;35149;51.196;6.204;2024-02-28T03:20:58;71.18;;;33.35;;
49131;SDS011;35149;51.196;6.204;2024-02-28T03:23:25;89.70;;;32.22;;
49131;SDS011;35149;51.196;6.204;2024-02-28T03:25:51;136.68;;;33.53;;
49131;SDS011;35149;51.196;6.204;2024-02-28T03:28:18;97.00;;;31.33;;
49131;SDS011;35149;51.196;6.204;2024-02-28T03:30:45;103.10;;;32.17;;
49131;SDS011;35149;51.196;6.204;2024-02-28T03:33:12;98.82;;;34.65;;
49131;SDS011;35149;51.196;6.204;2024-02-28T03:35:39;103.05;;;34.17;;
49131;SDS011;35149;51.196;6.204;2024-02-28T03:38:05;88.72;;;32.20;;
49131;SDS011;35149;51.196;6.204;2024-02-28T03:40:32;96.22;;;33.60;;
49131;SDS011;35149;51.196;6.204;2024-02-28T03:42:59;99.78;;;33.95;;
49131;SDS011;35149;51.196;6.204;2024-02-28T03:45:29;92.80;;;32.45;;
49131;SDS011;35149;51.196;6.204;2024-02-28T03:47:56;63.10;;;30.75;;
49131;SDS011;35149;51.196;6.204;2024-02-28T03:50:23;92.07;;;33.67;;
49131;SDS011;35149;51.196;6.204;2024-02-28T03:52:50;124.50;;;32.92;;
49131;SDS011;35149;51.196;6.204;2024-02-28T03:55:17;68.68;;;32.40;;
49131;SDS011;35149;51.196;6.204;2024-02-28T03:57:46;81.55;;;32.20;;
49131;SDS011;35149;51.196;6.204;2024-02-28T04:00:14;74.28;;;33.25;;
49131;SDS011;35149;51.196;6.204;2024-02-28T04:02:41;89.50;;;34.38;;
49131;SDS011;35149;51.196;6.204;2024-02-28T04:05:07;94.13;;;31.40;;
49131;SDS011;35149;51.196;6.204;2024-02-28T04:07:35;83.93;;;32.47;;
49131;SDS011;35149;51.196;6.204;2024-02-28T04:10:01;91.65;;;32.20;;
49131;SDS011;35149;51.196;6.204;2024-02-28T04:12:31;64.68;;;33.03;;
49131;SDS011;35149;51.196;6.204;2024-02-28T04:14:58;88.35;;;33.33;;
49131;SDS011;35149;51.196;6.204;2024-02-28T04:17:25;96.10;;;33.45;;
49131;SDS011;35149;51.196;6.204;2024-02-28T04:19:51;61.90;;;33.75;;
49131;SDS011;35149;51.196;6.204;2024-02-28T04:22:18;78.50;;;32.92;;
49131;SDS011;35149;51.196;6.204;2024-02-28T04:24:45;80.93;;;35.10;;
49131;SDS011;35149;51.196;6.204;2024-02-28T04:27:12;99.60;;;36.33;;
49131;SDS011;35149;51.196;6.204;2024-02-28T04:29:39;88.50;;;34.92;;
49131;SDS011;35149;51.196;6.204;2024-02-28T04:32:05;66.10;;;33.45;;
49131;SDS011;35149;51.196;6.204;2024-02-28T04:34:32;79.68;;;33.67;;
49131;SDS011;35149;51.196;6.204;2024-02-28T04:36:59;77.10;;;35.03;;
49131;SDS011;35149;51.196;6.204;2024-02-28T04:39:26;62.97;;;34.03;;
49131;SDS011;35149;51.196;6.204;2024-02-28T04:41:53;81.30;;;34.60;;
49131;SDS011;35149;51.196;6.204;2024-02-28T04:44:19;69.68;;;35.42;;
49131;SDS011;35149;51.196;6.204;2024-02-28T04:46:46;80.57;;;35.47;;
49131;SDS011;35149;51.196;6.204;2024-02-28T04:49:13;74.10;;;35.03;;
49131;SDS011;35149;51.196;6.204;2024-02-28T04:51:39;75.65;;;32.60;;
49131;SDS011;35149;51.196;6.204;2024-02-28T04:54:06;66.63;;;34.83;;
49131;SDS011;35149;51.196;6.204;2024-02-28T04:56:33;69.63;;;34.65;;
49131;SDS011;35149;51.196;6.204;2024-02-28T04:59:05;82.20;;;33.60;;
49131;SDS011;35149;51.196;6.204;2024-02-28T05:01:32;70.25;;;34.28;;
49131;SDS011;35149;51.196;6.204;2024-02-28T05:03:59;81.38;;;35.35;;
49131;SDS011;35149;51.196;6.204;2024-02-28T05:06:26;98.60;;;34.50;;
49131;SDS011;35149;51.196;6.204;2024-02-28T05:08:52;76.72;;;34.17;;
49131;SDS011;35149;51.196;6.204;2024-02-28T05:11:19;71.68;;;33.45;;
49131;SDS011;35149;51.196;6.204;2024-02-28T05:13:46;84.47;;;34.08;;
49131;SDS011;35149;51.196;6.204;2024-02-28T05:16:13;79.97;;;32.38;;
49131;SDS011;35149;51.196;6.204;2024-02-28T05:18:41;65.88;;;33.33;;
49131;SDS011;35149;51.196;6.204;2024-02-28T05:21:08;74.53;;;34.17;;
49131;SDS011;35149;51.196;6.204;2024-02-28T05:23:35;70.38;;;32.22;;
49131;SDS011;35149;51.196;6.204;2024-02-28T05:26:02;63.97;;;31.98;;
49131;SDS011;35149;51.196;6.204;2024-02-28T05:28:30;61.60;;;33.20;;
49131;SDS011;35149;51.196;6.204;2024-02-28T05:30:59;63.95;;;33.83;;
49131;SDS011;35149;51.196;6.204;2024-02-28T05:33:30;73.18;;;31.48;;
49131;SDS011;35149;51.196;6.204;2024-02-28T05:35:57;60.40;;;30.17;;
49131;SDS011;35149;51.196;6.204;2024-02-28T05:38:23;62.35;;;30.73;;
49131;SDS011;35149;51.196;6.204;2024-02-28T05:40:50;69.13;;;32.58;;
49131;SDS011;35149;51.196;6.204;2024-02-28T05:43:17;74.85;;;34.88;;
49131;SDS011;35149;51.196;6.204;2024-02-28T05:45:44;78.25;;;32.30;;
49131;SDS011;35149;51.196;6.204;2024-02-28T05:48:10;64.95;;;32.63;;
49131;SDS011;35149;51.196;6.204;2024-02-28T05:50:37;65.85;;;30.05;;
49131;SDS011;35149;51.196;6.204;2024-02-28T05:53:04;86.10;;;30.80;;
49131;SDS011;35149;51.196;6.204;2024-02-28T05:55:31;64.40;;;30.02;;
49131;SDS011;35149;51.196;6.204;2024-02-28T05:57:58;71.63;;;31.25;;
49131;SDS011;35149;51.196;6.204;2024-02-28T06:00:25;57.53;;;29.90;;
49131;SDS011;35149;51.196;6.204;2024-02-28T06:02:51;67.47;;;29.83;;
49131;SDS011;35149;51.196;6.204;2024-02-28T06:05:18;65.85;;;28.80;;
49131;SDS011;35149;51.196;6.204;2024-02-28T06:07:45;58.83;;;30.10;;
49131;SDS011;35149;51.196;6.204;2024-02-28T06:10:12;68.82;;;30.80;;
49131;SDS011;35149;51.196;6.204;2024-02-28T06:12:39;64.35;;;30.25;;
49131;SDS011;35149;51.196;6.204;2024-02-28T06:15:06;74.63;;;32.22;;
49131;SDS011;35149;51.196;6.204;2024-02-28T06:17:33;72.30;;;31.65;;
49131;SDS011;35149;51.196;6.204;2024-02-28T06:20:00;72.88;;;32.22;;
49131;SDS011;35149;51.196;6.204;2024-02-28T06:22:26;56.78;;;31.75;;
49131;SDS011;35149;51.196;6.204;2024-02-28T06:24:53;64.32;;;32.35;;
49131;SDS011;35149;51.196;6.204;2024-02-28T06:27:20;57.25;;;28.55;;
49131;SDS011;35149;51.196;6.204;2024-02-28T06:29:47;59.78;;;30.33;;
49131;SDS011;35149;51.196;6.204;2024-02-28T06:32:15;50.28;;;29.83;;
49131;SDS011;35149;51.196;6.204;2024-02-28T06:34:41;62.15;;;29.70;;
49131;SDS011;35149;51.196;6.204;2024-02-28T06:37:08;63.47;;;30.13;;
49131;SDS011;35149;51.196;6.204;2024-02-28T06:39:35;51.22;;;28.20;;
49131;SDS011;35149;51.196;6.204;2024-02-28T06:42:02;78.07;;;29.80;;
49131;SDS011;35149;51.196;6.204;2024-02-28T06:44:29;80.95;;;29.85;;
49131;SDS011;35149;51.196;6.204;2024-02-28T06:46:55;62.78;;;28.42;;
49131;SDS011;35149;51.196;6.204;2024-02-28T06:49:22;66.80;;;27.50;;
49131;SDS011;35149;51.196;6.204;2024-02-28T06:51:49;74.47;;;29.88;;
49131;SDS011;35149;51.196;6.204;2024-02-28T06:54:15;63.33;;;29.55;;
49131;SDS011;35149;51.196;6.204;2024-02-28T06:56:42;60.90;;;29.20;;
49131;SDS011;35149;51.196;6.204;2024-02-28T06:59:09;60.83;;;28.52;;
49131;SDS011;35149;51.196;6.204;2024-02-28T07:01:36;53.92;;;28.08;;
49131;SDS011;35149;51.196;6.204;2024-02-28T07:04:03;56.45;;;28.25;;
49131;SDS011;35149;51.196;6.204;2024-02-28T07:06:29;59.83;;;29.10;;
49131;SDS011;35149;51.196;6.204;2024-02-28T07:08:57;52.90;;;28.90;;
49131;SDS011;35149;51.196;6.204;2024-02-28T07:11:23;52.72;;;28.13;;
49131;SDS011;35149;51.196;6.204;2024-02-28T07:13:50;55.40;;;28.80;;
49131;SDS011;35149;51.196;6.204;2024-02-28T07:16:17;59.15;;;28.38;;
49131;SDS011;35149;51.196;6.204;2024-02-28T07:18:44;50.85;;;27.70;;
49131;SDS011;35149;51.196;6.204;2024-02-28T07:21:11;49.90;;;27.02;;
49131;SDS011;35149;51.196;6.204;2024-02-28T07:23:41;57.83;;;29.10;;
49131;SDS011;35149;51.196;6.204;2024-02-28T07:26:07;58.28;;;30.23;;
49131;SDS011;35149;51.196;6.204;2024-02-28T07:28:48;57.15;;;28.92;;
49131;SDS011;35149;51.196;6.204;2024-02-28T07:31:18;60.60;;;31.83;;
49131;SDS011;35149;51.196;6.204;2024-02-28T07:33:45;54.08;;;28.85;;
49131;SDS011;35149;51.196;6.204;2024-02-28T07:36:12;56.20;;;27.88;;
49131;SDS011;35149;51.196;6.204;2024-02-28T07:38:41;61.97;;;28.17;;
49131;SDS011;35149;51.196;6.204;2024-02-28T07:41:08;57.28;;;30.38;;
49131;SDS011;35149;51.196;6.204;2024-02-28T07:43:35;63.00;;;30.00;;
49131;SDS011;35149;51.196;6.204;2024-02-28T07:46:08;56.42;;;29.25;;
49131;SDS011;35149;51.196;6.204;2024-02-28T07:48:35;54.15;;;29.33;;
49131;SDS011;35149;51.196;6.204;2024-02-28T07:51:05;58.80;;;31.58;;
49131;SDS011;35149;51.196;6.204;2024-02-28T07:53:33;57.60;;;29.77;;
49131;SDS011;35149;51.196;6.204;2024-02-28T07:56:00;60.58;;;30.20;;
49131;SDS011;35149;51.196;6.204;2024-02-28T07:58:26;58.17;;;30.00;;
49131;SDS011;35149;51.196;6.204;2024-02-28T08:00:53;52.95;;;27.02;;
49131;SDS011;35149;51.196;6.204;2024-02-28T08:03:20;58.20;;;30.95;;
49131;SDS011;35149;51.196;6.204;2024-02-28T08:05:47;64.15;;;31.38;;
49131;SDS011;35149;51.196;6.204;2024-02-28T08:08:14;63.45;;;31.70;;
49131;SDS011;35149;51.196;6.204;2024-02-28T08:10:41;59.45;;;31.67;;
49131;SDS011;35149;51.196;6.204;2024-02-28T08:13:08;57.42;;;30.75;;
49131;SDS011;35149;51.196;6.204;2024-02-28T08:15:35;64.65;;;30.80;;
49131;SDS011;35149;51.196;6.204;2024-02-28T08:18:02;62.55;;;31.77;;
49131;SDS011;35149;51.196;6.204;2024-02-28T08:20:29;55.67;;;30.95;;
49131;SDS011;35149;51.196;6.204;2024-02-28T08:22:56;66.82;;;33.88;;
49131;SDS011;35149;51.196;6.204;2024-02-28T08:25:24;59.75;;;32.92;;
49131;SDS011;35149;51.196;6.204;2024-02-28T08:27:51;61.83;;;31.60;;
49131;SDS011;35149;51.196;6.204;2024-02-28T08:30:18;65.50;;;33.58;;
49131;SDS011;35149;51.196;6.204;2024-02-28T08:32:44;58.03;;;32.25;;
49131;SDS011;35149;51.196;6.204;2024-02-28T08:35:11;64.68;;;33.10;;
49131;SDS011;35149;51.196;6.204;2024-02-28T08:37:38;63.50;;;33.75;;
49131;SDS011;35149;51.196;6.204;2024-02-28T08:40:06;60.42;;;30.80;;
49131;SDS011;35149;51.196;6.204;2024-02-28T08:42:33;60.42;;;32.17;;
49131;SDS011;35149;51.196;6.204;2024-02-28T08:45:00;57.40;;;30.02;;
49131;SDS011;35149;51.196;6.204;2024-02-28T08:47:27;56.85;;;29.90;;
49131;SDS011;35149;51.196;6.204;2024-02-28T08:49:54;54.13;;;31.23;;
49131;SDS011;35149;51.196;6.204;2024-02-28T08:52:21;54.78;;;29.52;;
49131;SDS011;35149;51.196;6.204;2024-02-28T08:54:47;53.15;;;30.20;;
49131;SDS011;35149;51.196;6.204;2024-02-28T08:57:15;53.80;;;28.83;;
49131;SDS011;35149;51.196;6.204;2024-02-28T08:59:42;57.13;;;30.77;;
49131;SDS011;35149;51.196;6.204;2024-02-28T09:02:08;54.72;;;31.77;;
49131;SDS011;35149;51.196;6.204;2024-02-28T09:04:37;55.85;;;28.98;;
49131;SDS011;35149;51.196;6.204;2024-02-28T09:07:03;55.88;;;30.73;;
49131;SDS011;35149;51.196;6.204;2024-02-28T09:09:30;50.25;;;28.95;;
49131;SDS011;35149;51.196;6.204;2024-02-28T09:12:00;53.45;;;30.08;;
49131;SDS011;35149;51.196;6.204;2024-02-28T09:14:29;54.92;;;30.50;;
49131;SDS011;35149;51.196;6.204;2024-02-28T09:16:56;55.30;;;30.67;;
49131;SDS011;35149;51.196;6.204;2024-02-28T09:19:29;53.30;;;29.65;;
49131;SDS011;35149;51.196;6.204;2024-02-28T09:21:57;51.40;;;30.08;;
49131;SDS011;35149;51.196;6.204;2024-02-28T09:24:25;49.33;;;28.33;;
49131;SDS011;35149;51.196;6.204;2024-02-28T09:26:53;54.78;;;30.92;;
49131;SDS011;35149;51.196;6.204;2024-02-28T09:29:19;62.47;;;33.10;;
49131;SDS011;35149;51.196;6.204;2024-02-28T09:31:46;53.38;;;30.52;;
49131;SDS011;35149;51.196;6.204;2024-02-28T09:34:13;52.75;;;29.90;;
49131;SDS011;35149;51.196;6.204;2024-02-28T09:36:43;49.65;;;29.08;;
49131;SDS011;35149;51.196;6.204;2024-02-28T09:39:16;50.47;;;28.55;;
49131;SDS011;35149;51.196;6.204;2024-02-28T09:41:43;50.85;;;28.95;;
49131;SDS011;35149;51.196;6.204;2024-02-28T09:44:13;47.35;;;26.98;;
49131;SDS011;35149;51.196;6.204;2024-02-28T09:46:41;48.03;;;26.75;;
49131;SDS011;35149;51.196;6.204;2024-02-28T09:49:08;47.72;;;28.05;;
49131;SDS011;35149;51.196;6.204;2024-02-28T09:51:36;47.28;;;27.17;;
49131;SDS011;35149;51.196;6.204;2024-02-28T09:54:03;48.08;;;25.42;;
49131;SDS011;35149;51.196;6.204;2024-02-28T09:56:31;43.90;;;24.77;;
49131;SDS011;35149;51.196;6.204;2024-02-28T09:58:59;43.33;;;26.00;;
49131;SDS011;35149;51.196;6.204;2024-02-28T10:01:26;47.67;;;25.85;;
49131;SDS011;35149;51.196;6.204;2024-02-28T10:03:54;43.20;;;24.40;;
49131;SDS011;35149;51.196;6.204;2024-02-28T10:06:21;47.95;;;25.67;;
49131;SDS011;35149;51.196;6.204;2024-02-28T10:08:48;48.22;;;25.70;;
49131;SDS011;35149;51.196;6.204;2024-02-28T10:11:19;41.70;;;24.10;;
49131;SDS011;35149;51.196;6.204;2024-02-28T10:13:50;40.50;;;22.00;;
49131;SDS011;35149;51.196;6.204;2024-02-28T10:16:18;40.83;;;23.27;;
49131;SDS011;35149;51.196;6.204;2024-02-28T10:18:45;38.33;;;23.85;;
49131;SDS011;35149;51.196;6.204;2024-02-28T10:21:12;43.42;;;24.23;;
49131;SDS011;35149;51.196;6.204;2024-02-28T10:23:41;42.25;;;25.00;;
49131;SDS011;35149;51.196;6.204;2024-02-28T10:26:11;39.00;;;25.20;;
49131;SDS011;35149;51.196;6.204;2024-02-28T10:28:39;38.88;;;21.17;;
49131;SDS011;35149;51.196;6.204;2024-02-28T10:31:07;39.00;;;21.92;;
49131;SDS011;35149;51.196;6.204;2024-02-28T10:33:34;39.00;;;23.40;;
49131;SDS011;35149;51.196;6.204;2024-02-28T10:36:02;43.08;;;25.20;;
49131;SDS011;35149;51.196;6.204;2024-02-28T10:38:30;39.15;;;23.80;;
49131;SDS011;35149;51.196;6.204;2024-02-28T10:41:02;36.23;;;22.90;;
49131;SDS011;35149;51.196;6.204;2024-02-28T10:43:29;41.00;;;24.58;;
49131;SDS011;35149;51.196;6.204;2024-02-28T10:45:57;38.80;;;23.27;;
49131;SDS011;35149;51.196;6.204;2024-02-28T10:48:45;34.97;;;21.35;;
49131;SDS011;35149;51.196;6.204;2024-02-28T10:51:15;41.58;;;23.08;;
49131;SDS011;35149;51.196;6.204;2024-02-28T10:53:42;46.60;;;23.80;;
49131;SDS011;35149;51.196;6.204;2024-02-28T10:56:12;35.97;;;21.50;;
49131;SDS011;35149;51.196;6.204;2024-02-28T10:58:51;37.40;;;21.60;;
49131;SDS011;35149;51.196;6.204;2024-02-28T11:01:21;35.55;;;23.85;;
49131;SDS011;35149;51.196;6.204;2024-02-28T11:03:49;31.27;;;20.48;;
49131;SDS011;35149;51.196;6.204;2024-02-28T11:06:20;33.75;;;20.85;;
49131;SDS011;35149;51.196;6.204;2024-02-28T11:08:48;39.63;;;21.58;;
49131;SDS011;35149;51.196;6.204;2024-02-28T11:11:20;35.38;;;21.55;;
49131;SDS011;35149;51.196;6.204;2024-02-28T11:13:54;32.97;;;19.75;;
49131;SDS011;35149;51.196;6.204;2024-02-28T11:16:29;33.60;;;21.20;;
49131;SDS011;35149;51.196;6.204;2024-02-28T11:18:57;36.92;;;20.75;;
49131;SDS011;35149;51.196;6.204;2024-02-28T11:21:25;36.17;;;21.95;;
49131;SDS011;35149;51.196;6.204;2024-02-28T11:23:56;32.22;;;21.42;;
49131;SDS011;35149;51.196;6.204;2024-02-28T11:28:52;34.90;;;18.80;;
49131;SDS011;35149;51.196;6.204;2024-02-28T11:31:19;26.92;;;17.85;;
49131;SDS011;35149;51.196;6.204;2024-02-28T11:33:46;30.70;;;17.95;;
49131;SDS011;35149;51.196;6.204;2024-02-28T11:36:14;30.30;;;18.65;;
49131;SDS011;35149;51.196;6.204;2024-02-28T11:38:41;32.15;;;18.35;;
49131;SDS011;35149;51.196;6.204;2024-02-28T11:41:08;33.85;;;19.67;;
49131;SDS011;35149;51.196;6.204;2024-02-28T11:43:34;33.03;;;19.15;;
49131;SDS011;35149;51.196;6.204;2024-02-28T11:46:17;35.72;;;18.55;;
49131;SDS011;35149;51.196;6.204;2024-02-28T11:48:44;29.55;;;16.35;;
49131;SDS011;35149;51.196;6.204;2024-02-28T11:51:12;28.00;;;16.08;;
49131;SDS011;35149;51.196;6.204;2024-02-28T11:53:39;27.42;;;15.63;;
49131;SDS011;35149;51.196;6.204;2024-02-28T11:56:05;25.50;;;15.80;;
49131;SDS011;35149;51.196;6.204;2024-02-28T11:58:34;28.15;;;15.90;;
49131;SDS011;35149;51.196;6.204;2024-02-28T12:01:01;24.98;;;16.40;;
49131;SDS011;35149;51.196;6.204;2024-02-28T12:03:27;30.52;;;15.15;;
49131;SDS011;35149;51.196;6.204;2024-02-28T12:05:55;27.08;;;15.48;;
49131;SDS011;35149;51.196;6.204;2024-02-28T12:08:22;27.73;;;15.73;;
49131;SDS011;35149;51.196;6.204;2024-02-28T12:10:52;27.17;;;16.02;;
49131;SDS011;35149;51.196;6.204;2024-02-28T12:13:19;26.23;;;15.00;;
49131;SDS011;35149;51.196;6.204;2024-02-28T12:15:46;25.88;;;15.05;;
49131;SDS011;35149;51.196;6.204;2024-02-28T12:18:15;23.95;;;15.45;;
49131;SDS011;35149;51.196;6.204;2024-02-28T12:20:42;28.48;;;16.88;;
49131;SDS011;35149;51.196;6.204;2024-02-28T12:23:09;24.30;;;14.63;;
49131;SDS011;35149;51.196;6.204;2024-02-28T12:25:36;25.45;;;15.63;;
49131;SDS011;35149;51.196;6.204;2024-02-28T12:28:04;22.17;;;13.45;;
49131;SDS011;35149;51.196;6.204;2024-02-28T12:30:39;22.00;;;14.43;;
49131;SDS011;35149;51.196;6.204;2024-02-28T12:33:08;22.52;;;13.77;;
49131;SDS011;35149;51.196;6.204;2024-02-28T12:35:37;23.45;;;13.85;;
49131;SDS011;35149;51.196;6.204;2024-02-28T12:38:04;22.17;;;14.10;;
49131;SDS011;35149;51.196;6.204;2024-02-28T12:40:31;20.75;;;13.50;;
49131;SDS011;35149;51.196;6.204;2024-02-28T12:42:58;19.48;;;12.00;;
49131;SDS011;35149;51.196;6.204;2024-02-28T12:45:25;24.35;;;13.50;;
49131;SDS011;35149;51.196;6.204;2024-02-28T12:47:52;20.25;;;11.23;;
49131;SDS011;35149;51.196;6.204;2024-02-28T12:50:20;19.10;;;11.50;;
49131;SDS011;35149;51.196;6.204;2024-02-28T12:52:48;22.80;;;13.18;;
49131;SDS011;35149;51.196;6.204;2024-02-28T12:55:19;20.15;;;12.38;;
49131;SDS011;35149;51.196;6.204;2024-02-28T12:57:49;18.90;;;11.52;;
49131;SDS011;35149;51.196;6.204;2024-02-28T13:00:16;16.90;;;10.35;;
49131;SDS011;35149;51.196;6.204;2024-02-28T13:02:44;19.20;;;10.52;;
49131;SDS011;35149;51.196;6.204;2024-02-28T13:05:11;19.17;;;11.40;;
49131;SDS011;35149;51.196;6.204;2024-02-28T13:07:41;19.45;;;11.70;;
49131;SDS011;35149;51.196;6.204;2024-02-28T13:10:07;19.75;;;12.25;;
49131;SDS011;35149;51.196;6.204;2024-02-28T13:12:35;17.40;;;11.75;;
49131;SDS011;35149;51.196;6.204;2024-02-28T13:15:03;16.40;;;11.07;;
49131;SDS011;35149;51.196;6.204;2024-02-28T13:17:31;16.30;;;10.65;;
49131;SDS011;35149;51.196;6.204;2024-02-28T13:19:58;18.27;;;10.57;;
49131;SDS011;35149;51.196;6.204;2024-02-28T13:22:25;20.88;;;10.27;;
49131;SDS011;35149;51.196;6.204;2024-02-28T13:24:52;17.38;;;10.75;;
49131;SDS011;35149;51.196;6.204;2024-02-28T13:27:19;16.60;;;9.93;;
49131;SDS011;35149;51.196;6.204;2024-02-28T13:29:45;18.17;;;11.20;;
49131;SDS011;35149;51.196;6.204;2024-02-28T13:32:13;15.65;;;10.05;;
49131;SDS011;35149;51.196;6.204;2024-02-28T13:34:39;16.10;;;10.68;;
49131;SDS011;35149;51.196;6.204;2024-02-28T13:37:06;18.33;;;10.20;;
49131;SDS011;35149;51.196;6.204;2024-02-28T13:39:33;14.90;;;10.13;;
49131;SDS011;35149;51.196;6.204;2024-02-28T13:42:01;15.73;;;10.32;;
49131;SDS011;35149;51.196;6.204;2024-02-28T13:44:29;18.80;;;10.77;;
49131;SDS011;35149;51.196;6.204;2024-02-28T13:46:56;16.73;;;10.02;;
49131;SDS011;35149;51.196;6.204;2024-02-28T13:49:23;18.00;;;10.25;;
49131;SDS011;35149;51.196;6.204;2024-02-28T13:51:49;18.38;;;10.48;;
49131;SDS011;35149;51.196;6.204;2024-02-28T13:54:17;14.45;;;9.70;;
49131;SDS011;35149;51.196;6.204;2024-02-28T13:56:44;21.08;;;10.13;;
49131;SDS011;35149;51.196;6.204;2024-02-28T13:59:10;18.25;;;10.60;;
49131;SDS011;35149;51.196;6.204;2024-02-28T14:01:37;16.83;;;10.27;;
49131;SDS011;35149;51.196;6.204;2024-02-28T14:04:04;14.80;;;9.70;;
49131;SDS011;35149;51.196;6.204;2024-02-28T14:06:31;17.35;;;9.80;;
49131;SDS011;35149;51.196;6.204;2024-02-28T14:08:58;16.05;;;10.82;;
49131;SDS011;35149;51.196;6.204;2024-02-28T14:11:25;20.50;;;10.15;;
49131;SDS011;35149;51.196;6.204;2024-02-28T14:13:52;15.98;;;9.38;;
49131;SDS011;35149;51.196;6.204;2024-02-28T14:16:18;16.08;;;9.13;;
49131;SDS011;35149;51.196;6.204;2024-02-28T14:18:46;13.93;;;9.43;;
49131;SDS011;35149;51.196;6.204;2024-02-28T14:21:12;13.98;;;9.00;;
49131;SDS011;35149;51.196;6.204;2024-02-28T14:23:39;15.18;;;10.00;;
49131;SDS011;35149;51.196;6.204;2024-02-28T14:26:07;15.10;;;8.88;;